Saltar para o conteúdo principal

Ponta do Sol/Lugar de Baixo

ID 1210986 · 32.6815, -17.1042 mapa

Última leitura · 2026-05-09 19:00 (Europe/Lisbon)

Temperatura
17.9 °C
Humidade
69 %
Pressão
Precipitação
0.0 mm
Radiação
1,031 W/m²
Velocidade do vento
19.1 km/h
Direcção do vento
SW · Sudoeste

Histórico de 24 horas

Hora (Europe/Lisbon) Temperatura Humidade Pressão Chuva Vento Direcção
2026-05-09 19:00 17.9 °C 69 % 0.0 mm 19.1 km/h SW
2026-05-09 18:00 18.2 °C 69 % 0.0 mm 16.9 km/h SW
2026-05-09 17:00 17.9 °C 70 % 0.0 mm 16.9 km/h SW
2026-05-09 16:00 18.4 °C 65 % 0.0 mm 21.6 km/h SW
2026-05-09 15:00 18.9 °C 62 % 0.0 mm 22.0 km/h SW
2026-05-09 14:00 18.6 °C 66 % 0.0 mm 21.6 km/h SW
2026-05-09 13:00 18.5 °C 67 % 0.3 mm 18.0 km/h SW
2026-05-09 12:00 18.4 °C 67 % 0.0 mm 20.9 km/h SW
2026-05-09 11:00 17.7 °C 69 % 0.0 mm 20.2 km/h SW
2026-05-09 10:00 17.2 °C 72 % 0.1 mm 19.8 km/h SW
2026-05-09 09:00 16.1 °C 78 % 0.0 mm 13.3 km/h SW
2026-05-09 08:00 15.1 °C 81 % 0.4 mm 11.2 km/h SW
2026-05-09 07:00 15.0 °C 82 % 0.1 mm 3.2 km/h NE
2026-05-09 06:00 15.5 °C 81 % 0.0 mm 4.0 km/h NE
2026-05-09 05:00 15.2 °C 83 % 0.6 mm 4.3 km/h N
2026-05-09 04:00 16.1 °C 79 % 0.1 mm 10.8 km/h SW
2026-05-09 03:00 16.5 °C 74 % 0.0 mm 12.2 km/h SW
2026-05-09 02:00 16.6 °C 72 % 0.0 mm 11.5 km/h SW
2026-05-09 01:00 17.0 °C 72 % 0.0 mm 13.7 km/h SW
2026-05-09 00:00 17.0 °C 71 % 0.0 mm 15.5 km/h W
2026-05-08 23:00 16.9 °C 73 % 0.0 mm 16.2 km/h SW
2026-05-08 22:00 16.7 °C 77 % 0.2 mm 14.0 km/h W
2026-05-08 21:00 16.8 °C 80 % 0.0 mm 18.0 km/h SW
2026-05-08 20:00 16.1 °C 80 % 3.5 mm 20.2 km/h SW